CheckWX is a tool to help pilots better visualize weather data.  It is not intended as a substitute for an official pre-flight weather briefing.

13:03:29 UTC

KCLL TAF
Easterwood Field Airport
College Station, Texas, USA
KCLL 241129Z 2412/2512 15010KT P6SM BKN016 OVC025 FM241500 15011KT P6SM BKN025 FM241800 16013G22KT P6SM BKN035 FM250300 15009KT P6SM FEW250 FM250900 16010KT 6SM BR OVC015

May-24@
12:00 UTC

May-24 @ 12:00 UTC

May-24@
15:00 UTC

May-24 @ 15:00 UTC

KCLL 241129Z 2412/2512 15010KT P6SM BKN016 OVC025
Wind
  • 150° at 10 KTS
Cloud Levels
  • Broken at 1,600' AGL
  • Overcast at 2,500' AGL

May-24@
15:00 UTC

May-24 @ 15:00 UTC

May-24@
18:00 UTC

May-24 @ 18:00 UTC

FM241500 15011KT P6SM BKN025

From

From Standard forecast or significant change

Wind
  • 150° at 11 KTS
Cloud Levels
  • Broken at 2,500' AGL

May-24@
18:00 UTC

May-24 @ 18:00 UTC

May-25@
03:00 UTC

May-25 @ 03:00 UTC

FM241800 16013G22KT P6SM BKN035

From

From Standard forecast or significant change

Wind
  • 160° at 13 KTS
  • {Gusting to 22 KTS
Cloud Levels
  • Broken at 3,500' AGL

May-25@
03:00 UTC

May-25 @ 03:00 UTC

May-25@
09:00 UTC

May-25 @ 09:00 UTC

FM250300 15009KT P6SM FEW250

From

From Standard forecast or significant change

Wind
  • 150° at 9 KTS
Cloud Levels
  • Few at 25,000' AGL

May-25@
09:00 UTC

May-25 @ 09:00 UTC

May-25@
12:00 UTC

May-25 @ 12:00 UTC

FM250900 16010KT 6SM BR OVC015

From

From Standard forecast or significant change

Wind
  • 160° at 10 KTS
Conditions
Mist
Cloud Levels
  • Overcast at 1,500' AGL